sensor_id;sensor_type;location;lat;lon;timestamp;P1;durP1;ratioP1;P2;durP2;ratioP2
67352;SDS011;54238;52.278;21.056;2023-06-10T00:01:44;13.00;;;8.50;;
67352;SDS011;54238;52.278;21.056;2023-06-10T00:04:17;12.30;;;7.80;;
67352;SDS011;54238;52.278;21.056;2023-06-10T00:06:45;9.20;;;7.20;;
67352;SDS011;54238;52.278;21.056;2023-06-10T00:09:17;11.10;;;7.20;;
67352;SDS011;54238;52.278;21.056;2023-06-10T00:11:49;18.20;;;7.40;;
67352;SDS011;54238;52.278;21.056;2023-06-10T00:14:23;10.00;;;6.60;;
67352;SDS011;54238;52.278;21.056;2023-06-10T00:16:51;9.80;;;7.20;;
67352;SDS011;54238;52.278;21.056;2023-06-10T00:19:19;9.80;;;6.70;;
67352;SDS011;54238;52.278;21.056;2023-06-10T00:21:49;11.90;;;7.10;;
67352;SDS011;54238;52.278;21.056;2023-06-10T00:24:20;9.70;;;6.50;;
67352;SDS011;54238;52.278;21.056;2023-06-10T00:26:48;9.30;;;6.50;;
67352;SDS011;54238;52.278;21.056;2023-06-10T00:29:15;7.70;;;5.80;;
67352;SDS011;54238;52.278;21.056;2023-06-10T00:31:47;15.50;;;5.80;;
67352;SDS011;54238;52.278;21.056;2023-06-10T00:34:19;9.80;;;6.40;;
67352;SDS011;54238;52.278;21.056;2023-06-10T00:36:48;16.00;;;6.40;;
67352;SDS011;54238;52.278;21.056;2023-06-10T00:39:16;8.10;;;5.80;;
67352;SDS011;54238;52.278;21.056;2023-06-10T00:41:47;7.40;;;5.90;;
67352;SDS011;54238;52.278;21.056;2023-06-10T00:44:22;14.80;;;6.10;;
67352;SDS011;54238;52.278;21.056;2023-06-10T00:46:49;11.50;;;5.80;;
67352;SDS011;54238;52.278;21.056;2023-06-10T00:49:21;10.70;;;6.10;;
67352;SDS011;54238;52.278;21.056;2023-06-10T00:51:54;11.70;;;6.00;;
67352;SDS011;54238;52.278;21.056;2023-06-10T00:54:30;10.30;;;6.60;;
67352;SDS011;54238;52.278;21.056;2023-06-10T00:57:00;8.90;;;5.70;;
67352;SDS011;54238;52.278;21.056;2023-06-10T00:59:31;10.20;;;5.70;;
67352;SDS011;54238;52.278;21.056;2023-06-10T01:02:01;8.50;;;6.00;;
67352;SDS011;54238;52.278;21.056;2023-06-10T01:04:29;9.80;;;6.00;;
67352;SDS011;54238;52.278;21.056;2023-06-10T01:10:26;12.20;;;5.80;;
67352;SDS011;54238;52.278;21.056;2023-06-10T01:13:06;12.60;;;6.20;;
67352;SDS011;54238;52.278;21.056;2023-06-10T01:15:41;14.10;;;6.20;;
67352;SDS011;54238;52.278;21.056;2023-06-10T01:18:10;9.80;;;5.90;;
67352;SDS011;54238;52.278;21.056;2023-06-10T01:20:43;9.10;;;5.60;;
67352;SDS011;54238;52.278;21.056;2023-06-10T01:23:15;6.70;;;5.10;;
67352;SDS011;54238;52.278;21.056;2023-06-10T01:31:26;11.80;;;5.80;;
67352;SDS011;54238;52.278;21.056;2023-06-10T01:34:12;9.90;;;5.40;;
67352;SDS011;54238;52.278;21.056;2023-06-10T01:36:47;11.70;;;5.70;;
67352;SDS011;54238;52.278;21.056;2023-06-10T01:39:21;8.60;;;5.00;;
67352;SDS011;54238;52.278;21.056;2023-06-10T01:41:55;10.40;;;6.20;;
67352;SDS011;54238;52.278;21.056;2023-06-10T01:44:23;7.90;;;5.50;;
67352;SDS011;54238;52.278;21.056;2023-06-10T01:46:51;8.40;;;5.50;;
67352;SDS011;54238;52.278;21.056;2023-06-10T01:49:18;15.00;;;5.90;;
67352;SDS011;54238;52.278;21.056;2023-06-10T01:51:45;8.20;;;5.00;;
67352;SDS011;54238;52.278;21.056;2023-06-10T01:54:15;11.20;;;5.70;;
67352;SDS011;54238;52.278;21.056;2023-06-10T01:56:45;9.10;;;5.70;;
67352;SDS011;54238;52.278;21.056;2023-06-10T01:59:12;11.80;;;5.50;;
67352;SDS011;54238;52.278;21.056;2023-06-10T02:01:51;13.00;;;6.10;;
67352;SDS011;54238;52.278;21.056;2023-06-10T02:04:23;8.70;;;5.20;;
67352;SDS011;54238;52.278;21.056;2023-06-10T02:06:52;7.90;;;4.80;;
67352;SDS011;54238;52.278;21.056;2023-06-10T02:09:20;9.20;;;5.40;;
67352;SDS011;54238;52.278;21.056;2023-06-10T02:11:49;11.10;;;5.40;;
67352;SDS011;54238;52.278;21.056;2023-06-10T02:14:21;9.60;;;5.10;;
67352;SDS011;54238;52.278;21.056;2023-06-10T02:16:55;14.10;;;5.20;;
67352;SDS011;54238;52.278;21.056;2023-06-10T02:19:24;10.40;;;5.70;;
67352;SDS011;54238;52.278;21.056;2023-06-10T02:21:56;10.50;;;5.10;;
67352;SDS011;54238;52.278;21.056;2023-06-10T02:24:25;11.70;;;5.20;;
67352;SDS011;54238;52.278;21.056;2023-06-10T02:26:55;9.40;;;5.10;;
67352;SDS011;54238;52.278;21.056;2023-06-10T02:29:22;10.00;;;5.00;;
67352;SDS011;54238;52.278;21.056;2023-06-10T02:31:51;9.10;;;4.80;;
67352;SDS011;54238;52.278;21.056;2023-06-10T02:34:21;16.20;;;5.70;;
67352;SDS011;54238;52.278;21.056;2023-06-10T02:36:55;8.30;;;5.40;;
67352;SDS011;54238;52.278;21.056;2023-06-10T02:39:24;9.50;;;5.10;;
67352;SDS011;54238;52.278;21.056;2023-06-10T02:41:54;9.70;;;5.50;;
67352;SDS011;54238;52.278;21.056;2023-06-10T02:44:23;9.30;;;4.90;;
67352;SDS011;54238;52.278;21.056;2023-06-10T02:46:50;10.20;;;5.30;;
67352;SDS011;54238;52.278;21.056;2023-06-10T02:49:22;16.20;;;5.60;;
67352;SDS011;54238;52.278;21.056;2023-06-10T02:51:54;11.20;;;5.90;;
67352;SDS011;54238;52.278;21.056;2023-06-10T02:54:24;12.10;;;6.00;;
67352;SDS011;54238;52.278;21.056;2023-06-10T02:56:52;10.50;;;5.50;;
67352;SDS011;54238;52.278;21.056;2023-06-10T02:59:19;6.50;;;5.10;;
67352;SDS011;54238;52.278;21.056;2023-06-10T03:01:49;9.60;;;5.10;;
67352;SDS011;54238;52.278;21.056;2023-06-10T03:04:18;11.50;;;5.10;;
67352;SDS011;54238;52.278;21.056;2023-06-10T03:06:48;10.90;;;5.50;;
67352;SDS011;54238;52.278;21.056;2023-06-10T03:09:15;8.40;;;5.10;;
67352;SDS011;54238;52.278;21.056;2023-06-10T03:11:47;10.00;;;5.10;;
67352;SDS011;54238;52.278;21.056;2023-06-10T03:14:15;8.60;;;4.90;;
67352;SDS011;54238;52.278;21.056;2023-06-10T03:16:44;11.70;;;5.40;;
67352;SDS011;54238;52.278;21.056;2023-06-10T03:19:17;9.10;;;5.40;;
67352;SDS011;54238;52.278;21.056;2023-06-10T03:21:57;11.00;;;5.60;;
67352;SDS011;54238;52.278;21.056;2023-06-10T03:24:35;10.70;;;5.00;;
67352;SDS011;54238;52.278;21.056;2023-06-10T03:27:02;9.30;;;4.70;;
67352;SDS011;54238;52.278;21.056;2023-06-10T03:29:35;8.60;;;5.30;;
67352;SDS011;54238;52.278;21.056;2023-06-10T03:32:07;14.30;;;4.90;;
67352;SDS011;54238;52.278;21.056;2023-06-10T03:34:35;10.00;;;5.40;;
67352;SDS011;54238;52.278;21.056;2023-06-10T03:37:06;12.10;;;5.40;;
67352;SDS011;54238;52.278;21.056;2023-06-10T03:39:34;13.00;;;5.50;;
67352;SDS011;54238;52.278;21.056;2023-06-10T03:42:02;9.80;;;5.10;;
67352;SDS011;54238;52.278;21.056;2023-06-10T03:44:32;12.60;;;5.00;;
67352;SDS011;54238;52.278;21.056;2023-06-10T03:47:03;8.40;;;4.40;;
67352;SDS011;54238;52.278;21.056;2023-06-10T03:49:36;14.10;;;5.10;;
67352;SDS011;54238;52.278;21.056;2023-06-10T03:52:04;8.50;;;4.80;;
67352;SDS011;54238;52.278;21.056;2023-06-10T03:54:33;9.40;;;5.00;;
67352;SDS011;54238;52.278;21.056;2023-06-10T03:57:01;10.30;;;4.80;;
67352;SDS011;54238;52.278;21.056;2023-06-10T03:59:33;10.80;;;4.30;;
67352;SDS011;54238;52.278;21.056;2023-06-10T04:02:02;12.80;;;4.70;;
67352;SDS011;54238;52.278;21.056;2023-06-10T04:04:34;8.40;;;4.90;;
67352;SDS011;54238;52.278;21.056;2023-06-10T04:07:05;10.90;;;5.70;;
67352;SDS011;54238;52.278;21.056;2023-06-10T04:09:36;8.00;;;4.70;;
67352;SDS011;54238;52.278;21.056;2023-06-10T04:12:04;9.50;;;4.90;;
67352;SDS011;54238;52.278;21.056;2023-06-10T04:14:38;12.30;;;5.40;;
67352;SDS011;54238;52.278;21.056;2023-06-10T04:17:12;6.90;;;4.90;;
67352;SDS011;54238;52.278;21.056;2023-06-10T04:19:42;9.40;;;5.00;;
67352;SDS011;54238;52.278;21.056;2023-06-10T04:22:17;11.40;;;4.60;;
67352;SDS011;54238;52.278;21.056;2023-06-10T04:24:47;10.90;;;4.50;;
67352;SDS011;54238;52.278;21.056;2023-06-10T04:27:14;14.20;;;4.60;;
67352;SDS011;54238;52.278;21.056;2023-06-10T04:29:48;9.10;;;4.80;;
67352;SDS011;54238;52.278;21.056;2023-06-10T04:32:17;10.10;;;4.90;;
67352;SDS011;54238;52.278;21.056;2023-06-10T04:34:45;10.50;;;4.70;;
67352;SDS011;54238;52.278;21.056;2023-06-10T04:37:12;10.50;;;5.00;;
67352;SDS011;54238;52.278;21.056;2023-06-10T04:39:39;9.40;;;4.80;;
67352;SDS011;54238;52.278;21.056;2023-06-10T04:42:06;11.50;;;5.00;;
67352;SDS011;54238;52.278;21.056;2023-06-10T04:47:38;20.80;;;4.70;;
67352;SDS011;54238;52.278;21.056;2023-06-10T04:50:06;14.60;;;4.70;;
67352;SDS011;54238;52.278;21.056;2023-06-10T04:52:41;10.50;;;4.80;;
67352;SDS011;54238;52.278;21.056;2023-06-10T04:55:08;11.30;;;4.90;;
67352;SDS011;54238;52.278;21.056;2023-06-10T04:57:40;9.60;;;4.80;;
67352;SDS011;54238;52.278;21.056;2023-06-10T05:00:10;9.90;;;4.90;;
67352;SDS011;54238;52.278;21.056;2023-06-10T05:02:38;7.80;;;4.40;;
67352;SDS011;54238;52.278;21.056;2023-06-10T05:05:09;7.70;;;5.10;;
67352;SDS011;54238;52.278;21.056;2023-06-10T05:07:38;7.80;;;4.60;;
67352;SDS011;54238;52.278;21.056;2023-06-10T05:10:12;10.90;;;5.00;;
67352;SDS011;54238;52.278;21.056;2023-06-10T05:12:45;12.30;;;4.70;;
67352;SDS011;54238;52.278;21.056;2023-06-10T05:15:19;8.80;;;5.20;;
67352;SDS011;54238;52.278;21.056;2023-06-10T05:17:46;10.70;;;5.40;;
67352;SDS011;54238;52.278;21.056;2023-06-10T05:20:13;8.60;;;5.20;;
67352;SDS011;54238;52.278;21.056;2023-06-10T05:22:42;17.00;;;5.10;;
67352;SDS011;54238;52.278;21.056;2023-06-10T05:25:12;7.50;;;4.60;;
67352;SDS011;54238;52.278;21.056;2023-06-10T05:27:44;13.60;;;5.30;;
67352;SDS011;54238;52.278;21.056;2023-06-10T05:30:14;13.60;;;4.70;;
67352;SDS011;54238;52.278;21.056;2023-06-10T05:32:44;11.20;;;5.60;;
67352;SDS011;54238;52.278;21.056;2023-06-10T05:35:14;6.00;;;4.50;;
67352;SDS011;54238;52.278;21.056;2023-06-10T05:37:46;6.60;;;4.90;;
67352;SDS011;54238;52.278;21.056;2023-06-10T05:42:52;6.50;;;4.70;;
67352;SDS011;54238;52.278;21.056;2023-06-10T05:45:24;8.80;;;4.80;;
67352;SDS011;54238;52.278;21.056;2023-06-10T05:47:51;13.90;;;5.00;;
67352;SDS011;54238;52.278;21.056;2023-06-10T05:50:20;8.40;;;4.50;;
67352;SDS011;54238;52.278;21.056;2023-06-10T05:52:47;12.10;;;4.90;;
67352;SDS011;54238;52.278;21.056;2023-06-10T05:55:16;10.70;;;5.40;;
67352;SDS011;54238;52.278;21.056;2023-06-10T05:57:58;12.20;;;5.00;;
67352;SDS011;54238;52.278;21.056;2023-06-10T06:00:28;11.60;;;4.70;;
67352;SDS011;54238;52.278;21.056;2023-06-10T06:02:59;7.20;;;4.90;;
67352;SDS011;54238;52.278;21.056;2023-06-10T06:05:27;16.20;;;4.70;;
67352;SDS011;54238;52.278;21.056;2023-06-10T06:08:02;17.40;;;5.30;;
67352;SDS011;54238;52.278;21.056;2023-06-10T06:10:29;7.40;;;4.60;;
67352;SDS011;54238;52.278;21.056;2023-06-10T06:13:00;17.20;;;5.50;;
67352;SDS011;54238;52.278;21.056;2023-06-10T06:15:35;7.60;;;5.70;;
67352;SDS011;54238;52.278;21.056;2023-06-10T06:18:06;7.50;;;5.00;;
67352;SDS011;54238;52.278;21.056;2023-06-10T06:20:39;9.40;;;5.70;;
67352;SDS011;54238;52.278;21.056;2023-06-10T06:23:07;14.90;;;5.80;;
67352;SDS011;54238;52.278;21.056;2023-06-10T06:25:37;11.20;;;5.20;;
67352;SDS011;54238;52.278;21.056;2023-06-10T06:28:09;10.90;;;5.40;;
67352;SDS011;54238;52.278;21.056;2023-06-10T06:30:50;11.40;;;5.30;;
67352;SDS011;54238;52.278;21.056;2023-06-10T06:33:23;9.70;;;5.30;;
67352;SDS011;54238;52.278;21.056;2023-06-10T06:35:50;10.60;;;5.40;;
67352;SDS011;54238;52.278;21.056;2023-06-10T06:38:20;12.10;;;5.50;;
67352;SDS011;54238;52.278;21.056;2023-06-10T06:40:48;16.10;;;5.70;;
67352;SDS011;54238;52.278;21.056;2023-06-10T06:43:15;10.80;;;5.20;;
67352;SDS011;54238;52.278;21.056;2023-06-10T06:45:45;9.10;;;4.90;;
67352;SDS011;54238;52.278;21.056;2023-06-10T06:48:17;15.10;;;5.10;;
67352;SDS011;54238;52.278;21.056;2023-06-10T06:50:56;9.30;;;5.10;;
67352;SDS011;54238;52.278;21.056;2023-06-10T06:53:25;8.90;;;4.80;;
67352;SDS011;54238;52.278;21.056;2023-06-10T06:55:52;10.40;;;4.70;;
67352;SDS011;54238;52.278;21.056;2023-06-10T06:58:21;8.30;;;4.70;;
67352;SDS011;54238;52.278;21.056;2023-06-10T07:00:53;12.60;;;5.00;;
67352;SDS011;54238;52.278;21.056;2023-06-10T07:03:23;11.00;;;5.80;;
67352;SDS011;54238;52.278;21.056;2023-06-10T07:05:55;12.70;;;5.20;;
67352;SDS011;54238;52.278;21.056;2023-06-10T07:08:22;8.40;;;4.50;;
67352;SDS011;54238;52.278;21.056;2023-06-10T07:10:49;9.60;;;5.30;;
67352;SDS011;54238;52.278;21.056;2023-06-10T07:13:18;14.90;;;5.00;;
67352;SDS011;54238;52.278;21.056;2023-06-10T07:15:50;11.60;;;5.00;;
67352;SDS011;54238;52.278;21.056;2023-06-10T07:18:21;10.50;;;5.00;;
67352;SDS011;54238;52.278;21.056;2023-06-10T07:20:51;6.60;;;5.20;;
67352;SDS011;54238;52.278;21.056;2023-06-10T07:39:14;9.50;;;5.50;;
67352;SDS011;54238;52.278;21.056;2023-06-10T07:41:46;15.80;;;4.90;;
67352;SDS011;54238;52.278;21.056;2023-06-10T07:44:15;10.80;;;5.10;;
67352;SDS011;54238;52.278;21.056;2023-06-10T07:46:42;9.60;;;5.20;;
67352;SDS011;54238;52.278;21.056;2023-06-10T07:49:12;9.50;;;4.70;;
67352;SDS011;54238;52.278;21.056;2023-06-10T07:51:43;12.10;;;4.80;;
67352;SDS011;54238;52.278;21.056;2023-06-10T07:54:13;8.00;;;5.10;;
67352;SDS011;54238;52.278;21.056;2023-06-10T07:56:43;8.70;;;5.30;;
67352;SDS011;54238;52.278;21.056;2023-06-10T07:59:13;14.70;;;5.20;;
67352;SDS011;54238;52.278;21.056;2023-06-10T08:01:46;7.70;;;4.60;;
67352;SDS011;54238;52.278;21.056;2023-06-10T08:04:18;11.10;;;4.90;;
67352;SDS011;54238;52.278;21.056;2023-06-10T08:06:51;11.90;;;5.10;;
67352;SDS011;54238;52.278;21.056;2023-06-10T08:09:20;10.50;;;4.80;;
67352;SDS011;54238;52.278;21.056;2023-06-10T08:11:52;6.40;;;5.20;;
67352;SDS011;54238;52.278;21.056;2023-06-10T08:14:24;7.70;;;5.30;;
67352;SDS011;54238;52.278;21.056;2023-06-10T08:16:56;10.10;;;5.10;;
67352;SDS011;54238;52.278;21.056;2023-06-10T08:19:25;7.60;;;5.00;;
67352;SDS011;54238;52.278;21.056;2023-06-10T08:21:52;9.70;;;5.10;;
67352;SDS011;54238;52.278;21.056;2023-06-10T08:24:24;12.20;;;5.60;;
67352;SDS011;54238;52.278;21.056;2023-06-10T08:26:53;11.20;;;5.10;;
67352;SDS011;54238;52.278;21.056;2023-06-10T08:29:25;8.00;;;5.00;;
67352;SDS011;54238;52.278;21.056;2023-06-10T08:31:56;10.90;;;5.30;;
67352;SDS011;54238;52.278;21.056;2023-06-10T08:34:23;13.10;;;4.80;;
67352;SDS011;54238;52.278;21.056;2023-06-10T08:36:51;7.00;;;4.70;;
67352;SDS011;54238;52.278;21.056;2023-06-10T08:39:22;8.50;;;5.70;;
67352;SDS011;54238;52.278;21.056;2023-06-10T08:42:27;8.70;;;5.20;;
67352;SDS011;54238;52.278;21.056;2023-06-10T08:45:03;8.80;;;5.10;;
67352;SDS011;54238;52.278;21.056;2023-06-10T08:47:35;8.50;;;5.30;;
67352;SDS011;54238;52.278;21.056;2023-06-10T08:50:09;12.00;;;4.70;;
67352;SDS011;54238;52.278;21.056;2023-06-10T08:52:43;10.70;;;5.10;;
67352;SDS011;54238;52.278;21.056;2023-06-10T08:55:17;7.80;;;5.30;;
67352;SDS011;54238;52.278;21.056;2023-06-10T09:00:54;7.70;;;5.20;;
67352;SDS011;54238;52.278;21.056;2023-06-10T09:03:25;9.80;;;5.30;;
67352;SDS011;54238;52.278;21.056;2023-06-10T09:05:57;7.00;;;4.70;;
67352;SDS011;54238;52.278;21.056;2023-06-10T09:08:25;7.80;;;4.80;;
67352;SDS011;54238;52.278;21.056;2023-06-10T09:10:52;10.60;;;4.80;;
67352;SDS011;54238;52.278;21.056;2023-06-10T09:13:20;8.80;;;5.20;;
67352;SDS011;54238;52.278;21.056;2023-06-10T09:15:51;8.50;;;4.90;;
67352;SDS011;54238;52.278;21.056;2023-06-10T09:18:18;7.30;;;4.30;;
67352;SDS011;54238;52.278;21.056;2023-06-10T09:20:45;12.30;;;6.00;;
67352;SDS011;54238;52.278;21.056;2023-06-10T09:23:12;8.80;;;4.60;;
67352;SDS011;54238;52.278;21.056;2023-06-10T09:25:42;10.80;;;5.60;;
67352;SDS011;54238;52.278;21.056;2023-06-10T09:28:15;14.90;;;5.00;;
67352;SDS011;54238;52.278;21.056;2023-06-10T09:30:43;8.80;;;5.10;;
67352;SDS011;54238;52.278;21.056;2023-06-10T09:33:15;9.70;;;5.40;;
67352;SDS011;54238;52.278;21.056;2023-06-10T09:35:48;11.40;;;4.80;;
67352;SDS011;54238;52.278;21.056;2023-06-10T09:38:21;9.70;;;4.80;;
67352;SDS011;54238;52.278;21.056;2023-06-10T09:40:54;11.70;;;5.00;;
67352;SDS011;54238;52.278;21.056;2023-06-10T09:43:22;9.70;;;4.60;;
67352;SDS011;54238;52.278;21.056;2023-06-10T09:45:55;13.00;;;4.70;;
67352;SDS011;54238;52.278;21.056;2023-06-10T09:48:26;11.70;;;4.70;;
67352;SDS011;54238;52.278;21.056;2023-06-10T09:50:53;8.70;;;4.10;;
67352;SDS011;54238;52.278;21.056;2023-06-10T09:53:22;7.80;;;4.60;;
67352;SDS011;54238;52.278;21.056;2023-06-10T09:55:54;7.70;;;4.10;;
67352;SDS011;54238;52.278;21.056;2023-06-10T09:58:39;8.80;;;4.60;;
67352;SDS011;54238;52.278;21.056;2023-06-10T10:01:15;8.60;;;4.00;;
67352;SDS011;54238;52.278;21.056;2023-06-10T10:03:49;9.00;;;4.50;;
67352;SDS011;54238;52.278;21.056;2023-06-10T10:06:20;6.40;;;4.10;;
67352;SDS011;54238;52.278;21.056;2023-06-10T10:30:19;5.90;;;4.40;;
67352;SDS011;54238;52.278;21.056;2023-06-10T10:32:58;6.30;;;3.70;;
67352;SDS011;54238;52.278;21.056;2023-06-10T10:35:32;6.50;;;3.90;;
67352;SDS011;54238;52.278;21.056;2023-06-10T10:38:01;9.20;;;4.00;;
67352;SDS011;54238;52.278;21.056;2023-06-10T10:40:34;10.00;;;4.20;;
67352;SDS011;54238;52.278;21.056;2023-06-10T10:43:05;6.80;;;4.20;;
67352;SDS011;54238;52.278;21.056;2023-06-10T10:45:40;8.40;;;4.30;;
67352;SDS011;54238;52.278;21.056;2023-06-10T10:48:11;11.10;;;4.50;;
67352;SDS011;54238;52.278;21.056;2023-06-10T10:50:42;6.70;;;3.80;;
67352;SDS011;54238;52.278;21.056;2023-06-10T10:53:19;8.80;;;4.10;;
67352;SDS011;54238;52.278;21.056;2023-06-10T10:55:58;6.80;;;4.20;;
67352;SDS011;54238;52.278;21.056;2023-06-10T10:58:28;6.00;;;4.30;;
67352;SDS011;54238;52.278;21.056;2023-06-10T11:00:58;7.40;;;4.30;;
67352;SDS011;54238;52.278;21.056;2023-06-10T11:03:31;5.60;;;4.50;;
67352;SDS011;54238;52.278;21.056;2023-06-10T11:06:18;6.30;;;4.20;;
67352;SDS011;54238;52.278;21.056;2023-06-10T11:08:49;7.60;;;4.10;;
67352;SDS011;54238;52.278;21.056;2023-06-10T11:11:26;5.80;;;4.10;;
67352;SDS011;54238;52.278;21.056;2023-06-10T11:16:40;10.60;;;4.00;;
67352;SDS011;54238;52.278;21.056;2023-06-10T11:19:09;8.90;;;4.10;;
67352;SDS011;54238;52.278;21.056;2023-06-10T11:21:57;8.40;;;4.60;;
67352;SDS011;54238;52.278;21.056;2023-06-10T11:24:37;8.60;;;4.30;;
67352;SDS011;54238;52.278;21.056;2023-06-10T11:27:19;11.00;;;4.40;;
67352;SDS011;54238;52.278;21.056;2023-06-10T11:32:35;7.40;;;4.10;;
67352;SDS011;54238;52.278;21.056;2023-06-10T11:35:03;7.00;;;4.20;;
67352;SDS011;54238;52.278;21.056;2023-06-10T11:37:37;8.30;;;4.00;;
67352;SDS011;54238;52.278;21.056;2023-06-10T11:40:07;7.10;;;4.50;;
67352;SDS011;54238;52.278;21.056;2023-06-10T11:42:43;7.40;;;3.80;;
67352;SDS011;54238;52.278;21.056;2023-06-10T11:45:25;7.10;;;4.10;;
67352;SDS011;54238;52.278;21.056;2023-06-10T11:48:01;9.20;;;3.90;;
67352;SDS011;54238;52.278;21.056;2023-06-10T11:50:34;10.30;;;4.20;;
67352;SDS011;54238;52.278;21.056;2023-06-10T11:53:08;7.90;;;4.20;;
67352;SDS011;54238;52.278;21.056;2023-06-10T11:55:47;7.60;;;4.50;;
67352;SDS011;54238;52.278;21.056;2023-06-10T11:58:21;9.00;;;4.50;;
67352;SDS011;54238;52.278;21.056;2023-06-10T12:00:55;4.80;;;3.40;;
67352;SDS011;54238;52.278;21.056;2023-06-10T12:03:36;5.10;;;3.90;;
67352;SDS011;54238;52.278;21.056;2023-06-10T12:06:07;7.80;;;3.90;;
67352;SDS011;54238;52.278;21.056;2023-06-10T12:08:41;7.30;;;4.40;;
67352;SDS011;54238;52.278;21.056;2023-06-10T12:11:12;8.70;;;4.80;;
67352;SDS011;54238;52.278;21.056;2023-06-10T12:13:48;5.30;;;4.20;;
67352;SDS011;54238;52.278;21.056;2023-06-10T12:16:16;8.20;;;4.30;;
67352;SDS011;54238;52.278;21.056;2023-06-10T12:18:44;9.60;;;4.40;;
67352;SDS011;54238;52.278;21.056;2023-06-10T12:21:21;8.90;;;4.90;;
67352;SDS011;54238;52.278;21.056;2023-06-10T12:24:03;9.60;;;4.40;;
67352;SDS011;54238;52.278;21.056;2023-06-10T12:26:43;5.50;;;4.40;;
67352;SDS011;54238;52.278;21.056;2023-06-10T12:29:23;7.30;;;4.40;;
67352;SDS011;54238;52.278;21.056;2023-06-10T12:32:03;7.00;;;4.10;;
67352;SDS011;54238;52.278;21.056;2023-06-10T12:34:41;7.60;;;4.50;;
67352;SDS011;54238;52.278;21.056;2023-06-10T12:37:12;10.30;;;5.50;;
67352;SDS011;54238;52.278;21.056;2023-06-10T12:39:41;7.50;;;4.70;;
67352;SDS011;54238;52.278;21.056;2023-06-10T12:42:12;7.20;;;4.30;;
67352;SDS011;54238;52.278;21.056;2023-06-10T12:44:42;6.70;;;4.30;;
67352;SDS011;54238;52.278;21.056;2023-06-10T12:47:11;5.30;;;4.80;;
67352;SDS011;54238;52.278;21.056;2023-06-10T12:49:44;8.20;;;4.70;;
67352;SDS011;54238;52.278;21.056;2023-06-10T12:52:14;5.20;;;4.60;;
67352;SDS011;54238;52.278;21.056;2023-06-10T12:54:41;7.40;;;4.80;;
67352;SDS011;54238;52.278;21.056;2023-06-10T12:57:09;8.10;;;4.70;;
67352;SDS011;54238;52.278;21.056;2023-06-10T12:59:41;8.10;;;5.20;;
67352;SDS011;54238;52.278;21.056;2023-06-10T13:02:12;8.20;;;4.90;;
67352;SDS011;54238;52.278;21.056;2023-06-10T13:04:43;7.30;;;4.90;;
67352;SDS011;54238;52.278;21.056;2023-06-10T13:07:13;9.30;;;4.40;;
67352;SDS011;54238;52.278;21.056;2023-06-10T13:09:44;6.50;;;4.50;;
67352;SDS011;54238;52.278;21.056;2023-06-10T13:12:18;5.80;;;5.00;;
67352;SDS011;54238;52.278;21.056;2023-06-10T13:14:45;4.80;;;4.30;;
67352;SDS011;54238;52.278;21.056;2023-06-10T13:17:20;13.10;;;5.00;;
67352;SDS011;54238;52.278;21.056;2023-06-10T13:22:20;9.50;;;4.70;;
67352;SDS011;54238;52.278;21.056;2023-06-10T13:27:20;8.70;;;4.90;;
67352;SDS011;54238;52.278;21.056;2023-06-10T13:29:48;5.10;;;4.20;;
67352;SDS011;54238;52.278;21.056;2023-06-10T13:32:17;14.90;;;5.00;;
67352;SDS011;54238;52.278;21.056;2023-06-10T13:34:45;5.90;;;4.60;;
67352;SDS011;54238;52.278;21.056;2023-06-10T13:37:15;8.00;;;4.40;;
67352;SDS011;54238;52.278;21.056;2023-06-10T13:39:48;8.70;;;4.50;;
67352;SDS011;54238;52.278;21.056;2023-06-10T13:42:20;9.80;;;4.70;;
67352;SDS011;54238;52.278;21.056;2023-06-10T13:44:50;12.20;;;4.60;;
67352;SDS011;54238;52.278;21.056;2023-06-10T13:47:20;7.50;;;4.40;;
67352;SDS011;54238;52.278;21.056;2023-06-10T13:49:52;8.10;;;4.60;;
67352;SDS011;54238;52.278;21.056;2023-06-10T13:52:19;15.70;;;5.10;;
67352;SDS011;54238;52.278;21.056;2023-06-10T13:54:49;10.30;;;4.80;;
67352;SDS011;54238;52.278;21.056;2023-06-10T13:57:17;6.40;;;4.00;;
67352;SDS011;54238;52.278;21.056;2023-06-10T13:59:46;12.40;;;6.50;;
67352;SDS011;54238;52.278;21.056;2023-06-10T14:02:17;6.20;;;4.60;;
67352;SDS011;54238;52.278;21.056;2023-06-10T14:04:47;6.50;;;4.70;;
67352;SDS011;54238;52.278;21.056;2023-06-10T14:07:17;6.80;;;4.60;;
67352;SDS011;54238;52.278;21.056;2023-06-10T14:09:46;7.30;;;5.20;;
67352;SDS011;54238;52.278;21.056;2023-06-10T14:12:18;9.30;;;4.30;;
67352;SDS011;54238;52.278;21.056;2023-06-10T14:14:47;10.70;;;4.40;;
67352;SDS011;54238;52.278;21.056;2023-06-10T14:17:16;9.40;;;4.70;;
67352;SDS011;54238;52.278;21.056;2023-06-10T14:19:50;12.10;;;4.60;;
67352;SDS011;54238;52.278;21.056;2023-06-10T14:22:22;5.70;;;4.50;;
67352;SDS011;54238;52.278;21.056;2023-06-10T14:24:49;12.40;;;5.20;;
67352;SDS011;54238;52.278;21.056;2023-06-10T14:27:21;5.70;;;4.40;;
67352;SDS011;54238;52.278;21.056;2023-06-10T14:29:54;11.10;;;4.70;;
67352;SDS011;54238;52.278;21.056;2023-06-10T14:32:31;9.20;;;5.00;;
67352;SDS011;54238;52.278;21.056;2023-06-10T14:35:01;7.70;;;4.30;;
67352;SDS011;54238;52.278;21.056;2023-06-10T14:37:31;12.90;;;4.50;;
67352;SDS011;54238;52.278;21.056;2023-06-10T14:40:00;6.60;;;4.10;;
67352;SDS011;54238;52.278;21.056;2023-06-10T14:42:30;8.30;;;4.30;;
67352;SDS011;54238;52.278;21.056;2023-06-10T14:44:59;11.80;;;4.80;;
67352;SDS011;54238;52.278;21.056;2023-06-10T14:47:31;11.70;;;4.60;;
67352;SDS011;54238;52.278;21.056;2023-06-10T14:50:03;12.00;;;5.30;;
67352;SDS011;54238;52.278;21.056;2023-06-10T14:52:36;9.00;;;5.00;;
67352;SDS011;54238;52.278;21.056;2023-06-10T14:55:08;8.50;;;4.40;;
67352;SDS011;54238;52.278;21.056;2023-06-10T14:57:35;11.80;;;4.50;;
67352;SDS011;54238;52.278;21.056;2023-06-10T15:00:09;5.10;;;4.60;;
67352;SDS011;54238;52.278;21.056;2023-06-10T15:02:44;11.10;;;4.80;;
67352;SDS011;54238;52.278;21.056;2023-06-10T15:05:15;15.80;;;4.60;;
67352;SDS011;54238;52.278;21.056;2023-06-10T15:07:46;9.40;;;4.50;;
67352;SDS011;54238;52.278;21.056;2023-06-10T15:10:15;9.60;;;4.40;;
67352;SDS011;54238;52.278;21.056;2023-06-10T15:12:48;7.00;;;4.60;;
67352;SDS011;54238;52.278;21.056;2023-06-10T15:15:23;8.10;;;5.50;;
67352;SDS011;54238;52.278;21.056;2023-06-10T15:17:52;5.90;;;5.20;;
67352;SDS011;54238;52.278;21.056;2023-06-10T15:20:22;7.90;;;4.50;;
67352;SDS011;54238;52.278;21.056;2023-06-10T15:22:49;11.10;;;4.70;;
67352;SDS011;54238;52.278;21.056;2023-06-10T15:25:17;9.20;;;4.40;;
67352;SDS011;54238;52.278;21.056;2023-06-10T15:27:49;7.30;;;4.40;;
67352;SDS011;54238;52.278;21.056;2023-06-10T15:30:16;7.50;;;4.50;;
67352;SDS011;54238;52.278;21.056;2023-06-10T15:32:43;9.50;;;4.60;;
67352;SDS011;54238;52.278;21.056;2023-06-10T15:35:11;9.30;;;4.70;;
67352;SDS011;54238;52.278;21.056;2023-06-10T15:37:43;7.70;;;5.10;;
67352;SDS011;54238;52.278;21.056;2023-06-10T15:40:10;6.00;;;4.80;;
67352;SDS011;54238;52.278;21.056;2023-06-10T15:42:43;9.40;;;5.20;;
67352;SDS011;54238;52.278;21.056;2023-06-10T15:45:19;11.80;;;4.90;;
67352;SDS011;54238;52.278;21.056;2023-06-10T15:47:49;11.70;;;4.60;;
67352;SDS011;54238;52.278;21.056;2023-06-10T15:50:16;12.10;;;5.20;;
67352;SDS011;54238;52.278;21.056;2023-06-10T15:52:46;10.80;;;5.10;;
67352;SDS011;54238;52.278;21.056;2023-06-10T15:55:18;11.70;;;5.10;;
67352;SDS011;54238;52.278;21.056;2023-06-10T15:57:45;12.10;;;4.60;;